createdAt,value
2017-05-08T00:00:32.271Z,1008.45
2017-05-08T00:01:42.244Z,1008.43
2017-05-08T00:02:52.522Z,1008.46
2017-05-08T00:04:02.497Z,1008.44
2017-05-08T00:05:13.030Z,1008.44
2017-05-08T00:06:23.309Z,1008.41
2017-05-08T00:07:33.591Z,1008.45
2017-05-08T00:08:43.563Z,1008.48
2017-05-08T00:09:53.860Z,1008.48
2017-05-08T00:11:03.808Z,1008.51
2017-05-08T00:12:13.779Z,1008.5
2017-05-08T00:13:23.745Z,1008.49
2017-05-08T00:14:33.728Z,1008.5
2017-05-08T00:15:44.006Z,1008.48
2017-05-08T00:16:54.225Z,1008.51
2017-05-08T00:18:04.508Z,1008.47
2017-05-08T00:19:14.788Z,1008.48
2017-05-08T00:20:24.764Z,1008.47
2017-05-08T00:21:35.048Z,1008.47
2017-05-08T00:22:45.646Z,1008.44
2017-05-08T00:23:55.998Z,1008.44
2017-05-08T00:25:06.301Z,1008.45
2017-05-08T00:26:16.608Z,1008.4
2017-05-08T00:27:26.580Z,1008.42
2017-05-08T00:28:37.112Z,1008.41
2017-05-08T00:29:47.408Z,1008.46
2017-05-08T00:30:57.693Z,1008.49
2017-05-08T00:32:07.970Z,1008.43
2017-05-08T00:33:18.286Z,1008.44
2017-05-08T00:34:28.822Z,1008.45
2017-05-08T00:35:39.100Z,1008.45
2017-05-08T00:36:49.381Z,1008.4
2017-05-08T00:37:59.045Z,1008.39
2017-05-08T00:39:09.330Z,1008.39
2017-05-08T00:40:19.873Z,1008.33
2017-05-08T00:41:30.147Z,1008.35
2017-05-08T00:42:40.427Z,1008.31
2017-05-08T00:43:50.701Z,1008.33
2017-05-08T00:45:00.990Z,1008.34
2017-05-08T00:46:11.515Z,1008.31
2017-05-08T00:47:21.795Z,1008.27
2017-05-08T00:48:32.084Z,1008.3
2017-05-08T00:49:42.376Z,1008.25
2017-05-08T00:50:52.655Z,1008.23
2017-05-08T00:52:02.893Z,1008.22
2017-05-08T00:53:13.182Z,1008.27
2017-05-08T00:54:22.885Z,1008.24
2017-05-08T00:55:33.177Z,1008.13
2017-05-08T00:56:43.455Z,1008.18
2017-05-08T00:57:54.044Z,1008.1
2017-05-08T00:59:04.319Z,1008.11
2017-05-08T01:00:14.607Z,1008.11
2017-05-08T01:01:24.891Z,1008.11
2017-05-08T01:02:35.176Z,1008.06
2017-05-08T01:03:45.708Z,1008.1
2017-05-08T01:04:55.977Z,1008.06
2017-05-08T01:06:05.950Z,1008.09
2017-05-08T01:07:16.238Z,1008.08
2017-05-08T01:08:26.525Z,1008.09
2017-05-08T01:09:37.048Z,1008.11
2017-05-08T01:10:47.336Z,1008.08
2017-05-08T01:11:57.625Z,1008.09
2017-05-08T01:13:07.590Z,1008.05
2017-05-08T01:14:17.886Z,1008.08
2017-05-08T01:15:28.434Z,1008.04
2017-05-08T01:16:38.408Z,1008.03
2017-05-08T01:17:48.685Z,1007.99
2017-05-08T01:18:58.667Z,1008.01
2017-05-08T01:20:08.637Z,1008
2017-05-08T01:21:19.204Z,1007.97
2017-05-08T01:22:29.484Z,1007.95
2017-05-08T01:23:39.776Z,1007.97
2017-05-08T01:24:50.075Z,1007.95
2017-05-08T01:26:00.357Z,1007.92
2017-05-08T01:27:10.576Z,1007.94
2017-05-08T01:28:20.543Z,1007.94
2017-05-08T01:29:30.825Z,1007.93
2017-05-08T01:30:41.098Z,1007.95
2017-05-08T01:31:51.382Z,1007.92
2017-05-08T01:33:01.596Z,1007.91
2017-05-08T01:34:11.888Z,1007.95
2017-05-08T01:35:22.163Z,1007.92
2017-05-08T01:36:32.168Z,1008
2017-05-08T01:37:42.138Z,1007.95
2017-05-08T01:38:52.670Z,1008
2017-05-08T01:40:02.950Z,1008
2017-05-08T01:41:12.913Z,1008.03
2017-05-08T01:42:23.216Z,1008.04
2017-05-08T01:43:33.180Z,1008.06
2017-05-08T01:44:43.707Z,1008.05
2017-05-08T01:45:54.021Z,1008.06
2017-05-08T01:47:04.302Z,1008.07
2017-05-08T01:48:14.577Z,1008.08
2017-05-08T01:49:24.862Z,1008.07
2017-05-08T01:50:35.394Z,1008.05
2017-05-08T01:51:45.669Z,1008.05
2017-05-08T01:52:55.639Z,1008.06
2017-05-08T01:54:05.918Z,1008.02
2017-05-08T01:55:16.212Z,1008
2017-05-08T01:56:26.444Z,1008
2017-05-08T01:57:36.723Z,1008
2017-05-08T01:58:47.022Z,1007.98
2017-05-08T01:59:57.308Z,1007.96
2017-05-08T02:01:07.581Z,1008.03
2017-05-08T02:02:18.157Z,1007.97
2017-05-08T02:03:28.434Z,1007.98
2017-05-08T02:04:38.714Z,1007.99
2017-05-08T02:05:49.000Z,1007.98
2017-05-08T02:06:58.970Z,1007.98
2017-05-08T02:08:09.199Z,1007.98
2017-05-08T02:09:19.486Z,1007.95
2017-05-08T02:10:29.456Z,1007.96
2017-05-08T02:11:39.735Z,1008.01
2017-05-08T02:12:50.014Z,1007.99
2017-05-08T02:14:00.579Z,1008.01
2017-05-08T02:15:10.565Z,1008.02
2017-05-08T02:16:20.538Z,1007.98
2017-05-08T02:17:30.817Z,1007.98
2017-05-08T02:18:41.100Z,1007.96
2017-05-08T02:19:51.309Z,1007.93
2017-05-08T02:21:01.319Z,1007.94
2017-05-08T02:22:11.594Z,1007.95
2017-05-08T02:23:21.870Z,1007.91
2017-05-08T02:24:32.154Z,1007.91
2017-05-08T02:25:42.068Z,1007.89
2017-05-08T02:26:52.040Z,1007.85
2017-05-08T02:28:02.337Z,1007.89
2017-05-08T02:29:12.606Z,1007.9
2017-05-08T02:30:22.893Z,1007.89
2017-05-08T02:31:33.424Z,1007.84
2017-05-08T02:32:43.707Z,1007.87
2017-05-08T02:33:53.989Z,1007.84
2017-05-08T02:35:03.968Z,1007.86
2017-05-08T02:36:13.947Z,1007.86
2017-05-08T02:37:24.471Z,1007.89
2017-05-08T02:38:34.454Z,1007.89
2017-05-08T02:39:44.428Z,1007.88
2017-05-08T02:40:54.711Z,1007.86
2017-05-08T02:42:05.000Z,1007.86
2017-05-08T02:43:15.538Z,1007.82
2017-05-08T02:44:25.830Z,1007.79
2017-05-08T02:45:36.110Z,1007.8
2017-05-08T02:46:46.389Z,1007.81
2017-05-08T02:47:56.671Z,1007.86
2017-05-08T02:49:07.200Z,1007.86
2017-05-08T02:50:17.178Z,1007.84
2017-05-08T02:51:27.456Z,1007.86
2017-05-08T02:52:37.742Z,1007.8
2017-05-08T02:53:48.037Z,1007.79
2017-05-08T02:54:58.575Z,1007.84
2017-05-08T02:56:08.873Z,1007.83
2017-05-08T02:57:18.846Z,1007.85
2017-05-08T02:58:29.117Z,1007.85
2017-05-08T02:59:39.147Z,1007.8
2017-05-08T03:00:49.674Z,1007.84
2017-05-08T03:01:59.957Z,1007.84
2017-05-08T03:03:10.233Z,1007.85
2017-05-08T03:04:20.510Z,1007.83
2017-05-08T03:05:30.801Z,1007.83
2017-05-08T03:06:41.352Z,1007.81
2017-05-08T03:07:51.362Z,1007.82
2017-05-08T03:09:01.335Z,1007.79
2017-05-08T03:10:10.701Z,1007.79
2017-05-08T03:11:20.985Z,1007.86
2017-05-08T03:12:31.517Z,1007.85
2017-05-08T03:13:41.487Z,1007.9
2017-05-08T03:14:51.784Z,1007.89
2017-05-08T03:16:02.077Z,1007.88
2017-05-08T03:17:12.352Z,1007.94
2017-05-08T03:18:22.576Z,1007.92
2017-05-08T03:19:32.866Z,1007.92
2017-05-08T03:20:43.149Z,1007.96
2017-05-08T03:21:53.424Z,1007.94
2017-05-08T03:23:03.709Z,1007.91
2017-05-08T03:24:14.251Z,1007.91
2017-05-08T03:25:24.227Z,1007.9
2017-05-08T03:26:34.504Z,1007.89
2017-05-08T03:27:44.790Z,1007.9
2017-05-08T03:28:55.000Z,1007.91
2017-05-08T03:30:05.530Z,1007.87
2017-05-08T03:31:15.806Z,1007.87
2017-05-08T03:32:26.090Z,1007.9
2017-05-08T03:33:36.060Z,1007.92
2017-05-08T03:34:46.338Z,1007.97
2017-05-08T03:35:56.866Z,1007.98
2017-05-08T03:37:07.139Z,1008.01
2017-05-08T03:38:17.108Z,1008.02
2017-05-08T03:39:27.399Z,1008.07
2017-05-08T03:40:37.373Z,1008.11
2017-05-08T03:41:47.901Z,1008.08
2017-05-08T03:42:58.185Z,1008.09
2017-05-08T03:44:08.475Z,1008.06
2017-05-08T03:45:18.788Z,1008.03
2017-05-08T03:46:29.062Z,1008.03
2017-05-08T03:47:39.586Z,1008.08
2017-05-08T03:48:49.583Z,1008.05
2017-05-08T03:49:59.870Z,1008.09
2017-05-08T03:51:10.142Z,1008.09
2017-05-08T03:52:20.106Z,1008.11
2017-05-08T03:53:30.630Z,1008.09
2017-05-08T03:54:40.593Z,1008.06
2017-05-08T03:55:50.872Z,1008.06
2017-05-08T03:57:00.838Z,1008.07
2017-05-08T03:58:11.230Z,1008.11
2017-05-08T03:59:21.761Z,1008.16
2017-05-08T04:00:32.068Z,1008.16
2017-05-08T04:01:42.363Z,1008.2
2017-05-08T04:02:52.644Z,1008.22
2017-05-08T04:04:02.926Z,1008.19
2017-05-08T04:05:13.463Z,1008.18
2017-05-08T04:06:23.766Z,1008.17
2017-05-08T04:07:33.738Z,1008.17
2017-05-08T04:08:44.020Z,1008.17
2017-05-08T04:09:53.999Z,1008.2
2017-05-08T04:11:04.529Z,1008.21
2017-05-08T04:12:14.501Z,1008.21
2017-05-08T04:13:24.474Z,1008.25
2017-05-08T04:14:34.771Z,1008.21
2017-05-08T04:15:44.735Z,1008.25
2017-05-08T04:16:54.949Z,1008.25
2017-05-08T04:18:04.919Z,1008.29
2017-05-08T04:19:15.204Z,1008.3
2017-05-08T04:20:25.503Z,1008.35
2017-05-08T04:21:35.778Z,1008.35
2017-05-08T04:22:46.314Z,1008.29
2017-05-08T04:23:56.598Z,1008.32
2017-05-08T04:25:06.868Z,1008.34
2017-05-08T04:26:17.151Z,1008.33
2017-05-08T04:27:27.121Z,1008.37
2017-05-08T04:28:37.658Z,1008.38
2017-05-08T04:29:47.943Z,1008.41
2017-05-08T04:30:58.234Z,1008.39
2017-05-08T04:32:08.511Z,1008.33
2017-05-08T04:33:18.795Z,1008.34
2017-05-08T04:34:29.328Z,1008.36
2017-05-08T04:35:39.637Z,1008.35
2017-05-08T04:36:49.337Z,1008.38
2017-05-08T04:37:59.609Z,1008.36
2017-05-08T04:39:09.890Z,1008.41
2017-05-08T04:40:19.808Z,1008.45
2017-05-08T04:41:30.132Z,1008.45
2017-05-08T04:42:39.794Z,1008.41
2017-05-08T04:43:50.081Z,1008.42
2017-05-08T04:45:00.371Z,1008.41
2017-05-08T04:46:10.895Z,1008.41
2017-05-08T04:47:20.555Z,1008.42
2017-05-08T04:48:30.537Z,1008.44
2017-05-08T04:49:40.511Z,1008.48
2017-05-08T04:50:50.476Z,1008.49
2017-05-08T04:52:00.687Z,1008.52
2017-05-08T04:53:10.978Z,1008.5
2017-05-08T04:54:21.252Z,1008.46
2017-05-08T04:55:31.238Z,1008.49
2017-05-08T04:56:41.514Z,1008.49
2017-05-08T04:57:52.049Z,1008.47
2017-05-08T04:59:02.332Z,1008.49
2017-05-08T05:00:12.626Z,1008.5
2017-05-08T05:01:22.597Z,1008.53
2017-05-08T05:02:32.614Z,1008.55
2017-05-08T05:03:43.165Z,1008.51
2017-05-08T05:04:52.829Z,1008.54
2017-05-08T05:06:03.102Z,1008.53
2017-05-08T05:07:13.393Z,1008.54
2017-05-08T05:08:23.352Z,1008.5
2017-05-08T05:09:33.591Z,1008.53
2017-05-08T05:10:43.870Z,1008.5
2017-05-08T05:11:54.150Z,1008.48
2017-05-08T05:13:04.122Z,1008.5
2017-05-08T05:14:14.411Z,1008.52
2017-05-08T05:15:24.943Z,1008.5
2017-05-08T05:16:34.930Z,1008.54
2017-05-08T05:17:45.209Z,1008.55
2017-05-08T05:18:55.482Z,1008.55
2017-05-08T05:20:05.768Z,1008.55
2017-05-08T05:21:15.986Z,1008.58
2017-05-08T05:22:25.968Z,1008.6
2017-05-08T05:23:35.943Z,1008.61
2017-05-08T05:24:45.924Z,1008.62
2017-05-08T05:25:56.207Z,1008.65
2017-05-08T05:27:06.758Z,1008.66
2017-05-08T05:28:17.035Z,1008.64
2017-05-08T05:29:27.023Z,1008.58
2017-05-08T05:30:37.309Z,1008.6
2017-05-08T05:31:47.593Z,1008.6
2017-05-08T05:32:58.131Z,1008.62
2017-05-08T05:34:08.424Z,1008.64
2017-05-08T05:35:18.419Z,1008.66
2017-05-08T05:36:28.696Z,1008.7
2017-05-08T05:37:39.013Z,1008.72
2017-05-08T05:38:48.932Z,1008.71
2017-05-08T05:39:59.229Z,1008.72
2017-05-08T05:41:09.527Z,1008.73
2017-05-08T05:42:19.806Z,1008.71
2017-05-08T05:43:30.096Z,1008.77
2017-05-08T05:44:40.312Z,1008.7
2017-05-08T05:45:50.603Z,1008.72
2017-05-08T05:47:00.597Z,1008.71
2017-05-08T05:48:10.880Z,1008.75
2017-05-08T05:49:21.173Z,1008.73
2017-05-08T05:50:31.770Z,1008.74
2017-05-08T05:51:42.057Z,1008.81
2017-05-08T05:52:51.736Z,1008.8
2017-05-08T05:54:02.035Z,1008.83
2017-05-08T05:55:12.309Z,1008.84
2017-05-08T05:56:22.543Z,1008.83
2017-05-08T05:57:32.835Z,1008.84
2017-05-08T05:58:43.115Z,1008.87
2017-05-08T05:59:53.085Z,1008.88
2017-05-08T06:01:03.058Z,1008.91
2017-05-08T06:02:13.611Z,1008.95
2017-05-08T06:03:23.577Z,1008.98
2017-05-08T06:04:33.869Z,1009
2017-05-08T06:05:43.864Z,1009.01
2017-05-08T06:06:54.406Z,1009.05
2017-05-08T06:08:04.964Z,1009
2017-05-08T06:09:15.247Z,1009.05
2017-05-08T06:10:25.561Z,1009.02
2017-05-08T06:11:35.528Z,1008.99
2017-05-08T06:12:45.223Z,1008.99
2017-05-08T06:13:56.004Z,1008.95
2017-05-08T06:15:05.983Z,1008.97
2017-05-08T06:16:16.273Z,1008.96
2017-05-08T06:17:26.579Z,1008.96
2017-05-08T06:18:36.634Z,1008.98
2017-05-08T06:19:46.875Z,1008.98
2017-05-08T06:20:57.179Z,1009.03
2017-05-08T06:22:07.496Z,1009.03
2017-05-08T06:23:17.807Z,1009
2017-05-08T06:24:27.802Z,1008.99
2017-05-08T06:25:38.344Z,1009.01
2017-05-08T06:26:48.638Z,1008.99
2017-05-08T06:27:58.621Z,1008.99
2017-05-08T06:29:08.929Z,1009.01
2017-05-08T06:30:18.914Z,1008.99
2017-05-08T06:31:29.467Z,1009.03
2017-05-08T06:32:39.447Z,1008.94
2017-05-08T06:33:49.745Z,1008.94
2017-05-08T06:35:00.036Z,1008.97
2017-05-08T06:36:10.316Z,1008.97
2017-05-08T06:37:20.870Z,1008.97
2017-05-08T06:38:30.855Z,1008.93
2017-05-08T06:39:41.211Z,1008.97
2017-05-08T06:40:51.560Z,1008.95
2017-05-08T06:42:01.960Z,1008.94
2017-05-08T06:43:12.564Z,1008.94
2017-05-08T06:44:22.601Z,1008.92
2017-05-08T06:45:32.946Z,1008.92
2017-05-08T06:46:42.934Z,1008.89
2017-05-08T06:47:52.601Z,1008.87
2017-05-08T06:49:03.155Z,1008.87
2017-05-08T06:50:13.150Z,1008.83
2017-05-08T06:51:23.453Z,1008.88
2017-05-08T06:52:33.447Z,1008.79
2017-05-08T06:53:43.744Z,1008.83
2017-05-08T06:54:54.285Z,1008.82
2017-05-08T06:56:04.586Z,1008.82
2017-05-08T06:57:14.561Z,1008.8
2017-05-08T06:58:24.880Z,1008.86
2017-05-08T06:59:35.178Z,1008.88
2017-05-08T07:00:45.733Z,1008.9
2017-05-08T07:01:56.047Z,1008.86
2017-05-08T07:03:06.029Z,1008.86
2017-05-08T07:04:16.025Z,1008.81
2017-05-08T07:05:26.346Z,1008.83
2017-05-08T07:06:36.575Z,1008.81
2017-05-08T07:07:46.860Z,1008.81
2017-05-08T07:08:57.162Z,1008.81
2017-05-08T07:10:07.455Z,1008.84
2017-05-08T07:11:17.159Z,1008.85
2017-05-08T07:12:27.705Z,1008.86
2017-05-08T07:13:38.429Z,1008.89
2017-05-08T07:14:48.470Z,1008.92
2017-05-08T07:15:58.825Z,1008.92
2017-05-08T07:17:09.149Z,1008.97
2017-05-08T07:18:19.689Z,1008.99
2017-05-08T07:19:29.991Z,1008.98
2017-05-08T07:20:39.959Z,1008.96
2017-05-08T07:21:49.408Z,1008.98
2017-05-08T07:22:59.736Z,1008.96
2017-05-08T07:24:10.283Z,1008.98
2017-05-08T07:25:20.566Z,1008.94
2017-05-08T07:26:31.131Z,1008.96
2017-05-08T07:27:40.798Z,1008.88
2017-05-08T07:28:51.092Z,1008.96
2017-05-08T07:30:01.624Z,1008.95
2017-05-08T07:31:11.602Z,1008.85
2017-05-08T07:32:20.971Z,1008.95
2017-05-08T07:33:31.265Z,1008.86
2017-05-08T07:34:41.552Z,1008.89
2017-05-08T07:35:52.116Z,1008.9
2017-05-08T07:37:02.403Z,1008.9
2017-05-08T07:38:12.379Z,1008.95
2017-05-08T07:39:22.358Z,1008.92
2017-05-08T07:40:32.688Z,1008.91
2017-05-08T07:41:42.617Z,1008.96
2017-05-08T07:42:52.926Z,1009
2017-05-08T07:44:02.924Z,1009.02
2017-05-08T07:45:12.913Z,1009.01
2017-05-08T07:46:23.237Z,1008.97
2017-05-08T07:47:33.785Z,1008.98
2017-05-08T07:48:44.068Z,1008.98
2017-05-08T07:49:54.064Z,1009.01
2017-05-08T07:51:04.048Z,1009.02
2017-05-08T07:52:14.035Z,1009.02
2017-05-08T07:53:23.644Z,1009.02
2017-05-08T07:54:33.952Z,1009.05
2017-05-08T07:55:43.652Z,1008.98
2017-05-08T07:56:53.995Z,1009.03
2017-05-08T07:58:04.430Z,1009.02
2017-05-08T07:59:14.971Z,1009.05
2017-05-08T08:00:25.278Z,1009.03
2017-05-08T08:01:35.620Z,1009
2017-05-08T08:02:45.932Z,1009.06
2017-05-08T08:03:56.033Z,1009.03
2017-05-08T08:05:06.598Z,1009.05
2017-05-08T08:06:16.580Z,1009.07
2017-05-08T08:07:26.873Z,1009.09
2017-05-08T08:08:37.175Z,1009.12
2017-05-08T08:09:47.470Z,1009.13
2017-05-08T08:10:57.411Z,1009.13
2017-05-08T08:12:07.715Z,1009.05
2017-05-08T08:13:18.011Z,1009.11
2017-05-08T08:14:28.004Z,1009.12
2017-05-08T08:15:37.980Z,1009.11
2017-05-08T08:16:48.589Z,1009.09
2017-05-08T08:17:58.885Z,1009.12
2017-05-08T08:19:09.180Z,1009.11
2017-05-08T08:20:19.543Z,1009.14
2017-05-08T08:21:29.820Z,1009.12
2017-05-08T08:22:40.052Z,1009.13
2017-05-08T08:23:50.057Z,1009.13
2017-05-08T08:25:00.072Z,1009.18
2017-05-08T08:26:10.063Z,1009.15
2017-05-08T08:27:20.058Z,1009.19
2017-05-08T08:28:30.305Z,1009.18
2017-05-08T08:29:40.592Z,1009.19
2017-05-08T08:30:50.891Z,1009.17
2017-05-08T08:32:01.199Z,1009.15
2017-05-08T08:33:11.184Z,1009.1
2017-05-08T08:34:21.421Z,1009.13
2017-05-08T08:35:31.410Z,1009.12
2017-05-08T08:36:41.704Z,1009.15
2017-05-08T08:37:52.018Z,1009.19
2017-05-08T08:39:02.361Z,1009.2
2017-05-08T08:40:12.321Z,1009.2
2017-05-08T08:41:22.643Z,1009.19
2017-05-08T08:42:32.941Z,1009.24
2017-05-08T08:43:43.231Z,1009.22
2017-05-08T08:44:53.211Z,1009.21
2017-05-08T08:46:03.442Z,1009.23
2017-05-08T08:47:13.737Z,1009.26
2017-05-08T08:48:23.727Z,1009.26
2017-05-08T08:49:34.028Z,1009.3
2017-05-08T08:50:44.072Z,1009.3
2017-05-08T08:51:54.328Z,1009.25
2017-05-08T08:53:04.321Z,1009.31
2017-05-08T08:54:14.631Z,1009.29
2017-05-08T08:55:24.617Z,1009.27
2017-05-08T08:56:34.916Z,1009.35
2017-05-08T08:57:45.203Z,1009.35
2017-05-08T08:58:54.865Z,1009.36
2017-05-08T09:00:04.876Z,1009.4
2017-05-08T09:01:14.554Z,1009.39
2017-05-08T09:02:24.539Z,1009.38
2017-05-08T09:03:34.801Z,1009.43
2017-05-08T09:04:44.784Z,1009.4
2017-05-08T09:05:55.084Z,1009.39
2017-05-08T09:07:05.084Z,1009.41
2017-05-08T09:08:15.380Z,1009.42
2017-05-08T09:09:25.647Z,1009.41
2017-05-08T09:10:35.947Z,1009.39
2017-05-08T09:11:45.623Z,1009.41
2017-05-08T09:12:55.645Z,1009.43
2017-05-08T09:14:05.627Z,1009.37
2017-05-08T09:15:16.425Z,1009.35
2017-05-08T09:16:26.450Z,1009.38
2017-05-08T09:17:36.415Z,1009.39
2017-05-08T09:18:46.776Z,1009.42
2017-05-08T09:19:57.067Z,1009.46
2017-05-08T09:21:07.636Z,1009.45
2017-05-08T09:22:17.622Z,1009.46
2017-05-08T09:23:27.915Z,1009.43
2017-05-08T09:24:38.221Z,1009.49
2017-05-08T09:25:48.510Z,1009.44
2017-05-08T09:26:59.052Z,1009.45
2017-05-08T09:28:09.033Z,1009.43
2017-05-08T09:29:19.008Z,1009.39
2017-05-08T09:30:29.293Z,1009.45
2017-05-08T09:31:39.292Z,1009.46
2017-05-08T09:32:49.842Z,1009.44
2017-05-08T09:34:00.368Z,1009.44
2017-05-08T09:35:10.706Z,1009.5
2017-05-08T09:36:20.966Z,1009.52
2017-05-08T09:37:31.256Z,1009.51
2017-05-08T09:38:41.494Z,1009.52
2017-05-08T09:39:51.826Z,1009.51
2017-05-08T09:41:02.404Z,1009.55
2017-05-08T09:42:12.757Z,1009.53
2017-05-08T09:43:23.607Z,1009.52
2017-05-08T09:44:34.156Z,1009.54
2017-05-08T09:45:44.086Z,1009.53
2017-05-08T09:46:54.650Z,1009.56
2017-05-08T09:48:04.664Z,1009.55
2017-05-08T09:49:14.980Z,1009.57
2017-05-08T09:50:25.255Z,1009.55
2017-05-08T09:51:35.610Z,1009.62
2017-05-08T09:52:45.602Z,1009.6
2017-05-08T09:53:55.922Z,1009.59
2017-05-08T09:55:06.211Z,1009.59
2017-05-08T09:56:16.515Z,1009.59
2017-05-08T09:57:26.536Z,1009.61
2017-05-08T09:58:36.897Z,1009.56
2017-05-08T09:59:47.535Z,1009.55
2017-05-08T10:00:57.823Z,1009.59
2017-05-08T10:02:08.373Z,1009.57
2017-05-08T10:03:18.704Z,1009.59
2017-05-08T10:04:28.708Z,1009.55
2017-05-08T10:05:39.110Z,1009.54
2017-05-08T10:06:49.094Z,1009.59
2017-05-08T10:07:59.671Z,1009.6
2017-05-08T10:09:09.999Z,1009.6
2017-05-08T10:10:19.762Z,1009.56
2017-05-08T10:11:30.395Z,1009.63
2017-05-08T10:12:40.753Z,1009.6
2017-05-08T10:13:51.407Z,1009.6
2017-05-08T10:15:02.038Z,1009.57
2017-05-08T10:16:12.092Z,1009.65
2017-05-08T10:17:22.082Z,1009.62
2017-05-08T10:18:32.111Z,1009.61
2017-05-08T10:19:42.677Z,1009.63
2017-05-08T10:20:52.655Z,1009.65
2017-05-08T10:22:02.639Z,1009.64
2017-05-08T10:23:12.984Z,1009.67
2017-05-08T10:24:23.332Z,1009.64
2017-05-08T10:25:33.929Z,1009.63
2017-05-08T10:26:44.264Z,1009.62
2017-05-08T10:27:54.669Z,1009.66
2017-05-08T10:29:04.992Z,1009.66
2017-05-08T10:30:15.296Z,1009.65
2017-05-08T10:31:25.561Z,1009.69
2017-05-08T10:32:35.565Z,1009.67
2017-05-08T10:33:45.898Z,1009.67
2017-05-08T10:34:55.930Z,1009.69
2017-05-08T10:36:05.919Z,1009.67
2017-05-08T10:37:15.245Z,1009.68
2017-05-08T10:38:25.538Z,1009.67
2017-05-08T10:39:35.524Z,1009.64
2017-05-08T10:40:45.550Z,1009.6
2017-05-08T10:41:55.534Z,1009.62
2017-05-08T10:43:06.291Z,1009.66
2017-05-08T10:44:15.982Z,1009.65
2017-05-08T10:45:25.964Z,1009.61
2017-05-08T10:46:35.935Z,1009.57
2017-05-08T10:47:46.230Z,1009.6
2017-05-08T10:48:56.841Z,1009.59
2017-05-08T10:50:07.140Z,1009.58
2017-05-08T10:51:17.149Z,1009.54
2017-05-08T10:52:27.196Z,1009.55
2017-05-08T10:53:37.209Z,1009.55
2017-05-08T10:54:47.138Z,1009.59
2017-05-08T10:55:57.432Z,1009.55
2017-05-08T10:57:07.724Z,1009.59
2017-05-08T10:58:18.031Z,1009.58
2017-05-08T10:59:28.014Z,1009.59
2017-05-08T11:00:37.947Z,1009.61
2017-05-08T11:01:47.969Z,1009.62
2017-05-08T11:02:58.256Z,1009.62
2017-05-08T11:04:07.942Z,1009.6
2017-05-08T11:05:17.988Z,1009.61
2017-05-08T11:06:28.229Z,1009.64
2017-05-08T11:10:55.638Z,1009.68
2017-05-08T11:12:06.136Z,1009.68
2017-05-08T11:13:16.212Z,1009.68
2017-05-08T11:14:26.353Z,1009.68
2017-05-08T11:15:36.654Z,1009.69
2017-05-08T11:16:46.942Z,1009.71
2017-05-08T11:17:57.486Z,1009.67
2017-05-08T11:19:07.452Z,1009.73
2017-05-08T11:20:17.101Z,1009.73
2017-05-08T11:21:27.077Z,1009.75
2017-05-08T11:22:37.356Z,1009.77
2017-05-08T11:23:47.620Z,1009.78
2017-05-08T11:24:57.596Z,1009.76
2017-05-08T11:26:07.887Z,1009.74
2017-05-08T11:27:17.860Z,1009.77
2017-05-08T11:28:27.574Z,1009.78
2017-05-08T11:29:38.111Z,1009.8
2017-05-08T11:30:48.428Z,1009.82
2017-05-08T11:31:58.435Z,1009.8
2017-05-08T11:33:08.420Z,1009.81
2017-05-08T11:34:18.710Z,1009.82
2017-05-08T11:35:29.248Z,1009.83
2017-05-08T11:36:39.526Z,1009.83
2017-05-08T11:37:49.818Z,1009.78
2017-05-08T11:39:00.103Z,1009.77
2017-05-08T11:40:10.087Z,1009.78
2017-05-08T11:41:20.612Z,1009.74
2017-05-08T11:42:30.889Z,1009.73
2017-05-08T11:43:40.871Z,1009.78
2017-05-08T11:44:51.171Z,1009.76
2017-05-08T11:46:01.181Z,1009.72
2017-05-08T11:47:11.713Z,1009.78
2017-05-08T11:48:22.025Z,1009.75
2017-05-08T11:49:32.311Z,1009.75
2017-05-08T11:50:42.306Z,1009.74
2017-05-08T11:51:52.589Z,1009.77
2017-05-08T11:53:03.122Z,1009.73
2017-05-08T11:54:13.415Z,1009.74
2017-05-08T11:55:23.796Z,1009.74
2017-05-08T11:56:33.932Z,1009.76
2017-05-08T11:57:44.253Z,1009.7
2017-05-08T11:58:54.799Z,1009.74
2017-05-08T12:00:05.098Z,1009.7
2017-05-08T12:01:15.387Z,1009.72
2017-05-08T12:02:25.689Z,1009.8
2017-05-08T12:03:35.670Z,1009.8
2017-05-08T12:04:46.209Z,1009.79
2017-05-08T12:05:56.260Z,1009.79
2017-05-08T12:07:06.239Z,1009.78
2017-05-08T12:08:16.229Z,1009.82
2017-05-08T12:09:26.512Z,1009.86
2017-05-08T12:10:37.033Z,1009.86
2017-05-08T12:11:47.329Z,1009.89
2017-05-08T12:12:57.618Z,1009.87
2017-05-08T12:14:07.292Z,1009.87
2017-05-08T12:15:17.568Z,1009.88
2017-05-08T12:16:28.095Z,1009.87
2017-05-08T12:17:38.381Z,1009.93
2017-05-08T12:18:48.362Z,1009.92
2017-05-08T12:19:58.650Z,1009.94
2017-05-08T12:21:08.964Z,1009.91
2017-05-08T12:22:19.190Z,1009.89
2017-05-08T12:23:29.476Z,1009.95
2017-05-08T12:24:39.833Z,1009.94
2017-05-08T12:25:49.809Z,1009.96
2017-05-08T12:27:00.101Z,1009.93
2017-05-08T12:28:10.650Z,1009.9
2017-05-08T12:29:20.675Z,1009.92
2017-05-08T12:30:30.956Z,1009.92
2017-05-08T12:31:41.263Z,1009.91
2017-05-08T12:32:51.546Z,1009.94
2017-05-08T12:34:01.796Z,1009.93
2017-05-08T12:35:12.106Z,1009.94
2017-05-08T12:36:22.421Z,1009.95
2017-05-08T12:37:32.719Z,1009.95
2017-05-08T12:38:42.689Z,1009.93
2017-05-08T12:39:53.234Z,1009.91
2017-05-08T12:41:03.216Z,1009.92
2017-05-08T12:42:13.503Z,1009.93
2017-05-08T12:43:23.481Z,1009.94
2017-05-08T12:44:34.084Z,1009.9
2017-05-08T12:45:44.649Z,1009.92
2017-05-08T12:46:54.958Z,1009.97
2017-05-08T12:48:05.264Z,1009.96
2017-05-08T12:49:15.552Z,1009.95
2017-05-08T12:50:25.541Z,1009.96
2017-05-08T12:51:35.789Z,1010.01
2017-05-08T12:52:46.111Z,1009.97
2017-05-08T12:53:56.415Z,1009.99
2017-05-08T12:55:06.391Z,1010.01
2017-05-08T12:56:16.383Z,1010
2017-05-08T12:57:26.605Z,1010.01
2017-05-08T12:58:36.588Z,1009.98
2017-05-08T12:59:46.912Z,1010.01
2017-05-08T13:00:56.918Z,1009.99
2017-05-08T13:02:07.223Z,1010
2017-05-08T13:03:17.540Z,1010.02
2017-05-08T13:04:27.711Z,1010
2017-05-08T13:05:38.010Z,1009.99
2017-05-08T13:06:48.310Z,1009.98
2017-05-08T13:07:57.974Z,1010
2017-05-08T13:09:08.204Z,1009.99
2017-05-08T13:10:18.500Z,1009.99
2017-05-08T13:11:28.477Z,1009.96
2017-05-08T13:12:38.780Z,1009.98
2017-05-08T13:13:49.063Z,1009.97
2017-05-08T13:14:59.619Z,1009.98
2017-05-08T13:16:09.920Z,1009.96
2017-05-08T13:17:20.226Z,1009.93
2017-05-08T13:18:30.517Z,1009.98
2017-05-08T13:19:40.808Z,1009.95
2017-05-08T13:20:51.372Z,1009.95
2017-05-08T13:22:01.360Z,1009.96
2017-05-08T13:23:11.332Z,1009.99
2017-05-08T13:24:21.639Z,1010.15
2017-05-08T13:25:31.924Z,1010.26
2017-05-08T13:26:42.453Z,1010.22
2017-05-08T13:27:52.414Z,1010.32
2017-05-08T13:29:02.432Z,1010.36
2017-05-08T13:30:12.733Z,1010.4
2017-05-08T13:31:23.014Z,1010.45
2017-05-08T13:32:33.555Z,1010.51
2017-05-08T13:33:43.221Z,1010.52
2017-05-08T13:34:53.201Z,1010.55
2017-05-08T13:36:03.509Z,1010.61
2017-05-08T13:37:13.479Z,1010.61
2017-05-08T13:38:24.015Z,1010.64
2017-05-08T13:39:34.556Z,1010.66
2017-05-08T13:40:44.546Z,1010.72
2017-05-08T13:41:54.549Z,1010.72
2017-05-08T13:43:04.852Z,1010.75
2017-05-08T13:44:15.090Z,1010.78
2017-05-08T13:45:25.372Z,1010.83
2017-05-08T13:46:35.336Z,1010.87
2017-05-08T13:47:45.635Z,1010.91
2017-05-08T13:48:55.918Z,1010.86
2017-05-08T13:50:06.468Z,1010.92
2017-05-08T13:51:16.776Z,1010.92
2017-05-08T13:52:27.058Z,1010.89
2017-05-08T13:53:37.340Z,1010.91
2017-05-08T13:54:47.632Z,1010.91
2017-05-08T13:55:58.157Z,1010.94
2017-05-08T13:57:08.134Z,1010.96
2017-05-08T13:58:18.108Z,1010.95
2017-05-08T13:59:28.390Z,1010.95
2017-05-08T14:00:38.683Z,1010.99
2017-05-08T14:01:48.960Z,1010.95
2017-05-08T14:02:58.943Z,1011.03
2017-05-08T14:04:09.242Z,1010.99
2017-05-08T14:05:19.212Z,1010.99
2017-05-08T14:06:29.190Z,1011.05
2017-05-08T14:07:39.733Z,1011.02
2017-05-08T14:08:50.007Z,1011.03
2017-05-08T14:10:00.302Z,1011.06
2017-05-08T14:11:09.981Z,1011.07
2017-05-08T14:12:19.953Z,1011.12
2017-05-08T14:13:30.489Z,1011.1
2017-05-08T14:14:40.462Z,1011.16
2017-05-08T14:15:50.428Z,1011.2
2017-05-08T14:17:00.413Z,1011.17